createdAt,value
2022-10-01T00:02:08.092Z,13.13
2022-10-01T00:04:37.517Z,13.20
2022-10-01T00:07:09.499Z,10.20
2022-10-01T00:09:37.369Z,15.05
2022-10-01T00:12:05.076Z,10.90
2022-10-01T00:14:32.786Z,15.15
2022-10-01T00:17:00.416Z,12.45
2022-10-01T00:19:28.209Z,9.40
2022-10-01T00:21:55.811Z,9.82
2022-10-01T00:24:23.878Z,10.77
2022-10-01T00:26:51.487Z,12.52
2022-10-01T00:29:19.140Z,15.77
2022-10-01T00:31:46.698Z,12.25
2022-10-01T00:34:15.503Z,8.60
2022-10-01T00:36:43.128Z,11.30
2022-10-01T00:39:12.271Z,15.15
2022-10-01T00:41:40.030Z,14.43
2022-10-01T00:44:33.117Z,12.30
2022-10-01T00:47:28.738Z,10.80
2022-10-01T00:50:08.484Z,12.90
2022-10-01T00:52:39.905Z,17.20
2022-10-01T00:55:14.927Z,14.43
2022-10-01T00:57:43.602Z,20.27
2022-10-01T01:00:13.746Z,10.88
2022-10-01T01:02:41.705Z,10.50
2022-10-01T01:05:12.150Z,16.10
2022-10-01T01:07:45.454Z,13.48
2022-10-01T01:10:20.239Z,10.27
2022-10-01T01:13:06.124Z,16.73
2022-10-01T01:16:11.135Z,16.35
2022-10-01T01:18:40.292Z,12.38
2022-10-01T01:21:19.771Z,17.35
2022-10-01T01:24:25.282Z,14.70
2022-10-01T01:27:21.382Z,16.20
2022-10-01T01:30:03.704Z,15.63
2022-10-01T01:32:51.419Z,22.70
2022-10-01T01:35:31.556Z,14.38
2022-10-01T01:38:05.691Z,14.35
2022-10-01T01:40:36.838Z,13.68
2022-10-01T01:43:08.429Z,18.60
2022-10-01T01:48:09.141Z,14.13
2022-10-01T01:50:43.363Z,16.53
2022-10-01T01:53:11.410Z,16.38
2022-10-01T01:55:39.428Z,14.60
2022-10-01T01:58:07.459Z,16.73
2022-10-01T02:00:35.322Z,13.40
2022-10-01T02:03:03.483Z,21.77
2022-10-01T02:05:43.295Z,15.70
2022-10-01T02:08:41.082Z,9.82
2022-10-01T02:11:38.182Z,14.88
2022-10-01T02:14:43.572Z,9.82
2022-10-01T02:17:24.962Z,18.67
2022-10-01T02:20:13.682Z,16.80
2022-10-01T02:22:54.141Z,19.50
2022-10-01T02:25:27.073Z,16.40
2022-10-01T02:28:00.992Z,12.77
2022-10-01T02:30:32.087Z,13.65
2022-10-01T02:33:02.151Z,16.38
2022-10-01T02:35:32.405Z,17.50
2022-10-01T02:38:03.552Z,18.00
2022-10-01T02:40:34.407Z,15.38
2022-10-01T02:43:14.178Z,19.20
2022-10-01T02:45:46.181Z,14.68
2022-10-01T02:48:17.549Z,17.23
2022-10-01T02:50:50.055Z,20.60
2022-10-01T02:53:38.446Z,17.63
2022-10-01T02:56:07.945Z,28.67
2022-10-01T02:58:36.407Z,17.58
2022-10-01T03:01:04.110Z,19.65
2022-10-01T03:03:32.486Z,17.10
2022-10-01T03:06:00.114Z,16.10
2022-10-01T03:08:27.614Z,18.65
2022-10-01T03:10:55.138Z,14.25
2022-10-01T03:13:23.493Z,17.33
2022-10-01T03:15:51.060Z,15.13
2022-10-01T03:18:18.624Z,13.65
2022-10-01T03:20:48.105Z,12.27
2022-10-01T03:23:15.624Z,15.38
2022-10-01T03:25:43.147Z,18.75
2022-10-01T03:28:10.808Z,15.15
2022-10-01T03:30:39.552Z,17.15
2022-10-01T03:33:07.090Z,18.30
2022-10-01T03:35:34.630Z,17.02
2022-10-01T03:38:02.878Z,16.50
2022-10-01T03:40:33.261Z,15.75
2022-10-01T03:43:00.776Z,13.57
2022-10-01T03:45:28.314Z,17.85
2022-10-01T03:47:55.844Z,19.58
2022-10-01T03:50:23.406Z,19.70
2022-10-01T03:52:50.997Z,18.73
2022-10-01T03:55:19.354Z,21.52
2022-10-01T03:57:47.103Z,28.83
2022-10-01T04:00:14.694Z,20.48
2022-10-01T04:02:42.387Z,19.95
2022-10-01T04:05:10.026Z,17.10
2022-10-01T04:07:37.514Z,15.85
2022-10-01T04:10:05.445Z,20.35
2022-10-01T04:12:33.530Z,18.08
2022-10-01T04:15:01.062Z,16.02
2022-10-01T04:17:28.965Z,18.35
2022-10-01T04:19:57.770Z,17.15
2022-10-01T04:22:25.242Z,16.02
2022-10-01T04:24:53.783Z,21.80
2022-10-01T04:27:21.331Z,18.95
2022-10-01T04:29:48.821Z,20.63
2022-10-01T04:32:21.634Z,16.02
2022-10-01T04:34:55.070Z,15.90
2022-10-01T04:37:23.765Z,17.58
2022-10-01T04:39:51.267Z,24.90
2022-10-01T04:42:19.295Z,22.75
2022-10-01T04:44:46.967Z,19.27
2022-10-01T04:47:14.570Z,13.68
2022-10-01T04:49:42.082Z,24.48
2022-10-01T04:52:09.657Z,21.38
2022-10-01T04:54:37.151Z,15.25
2022-10-01T04:57:04.747Z,12.80
2022-10-01T04:59:32.950Z,14.52
2022-10-01T05:02:00.494Z,18.75
2022-10-01T05:04:28.196Z,17.92
2022-10-01T05:06:56.309Z,14.20
2022-10-01T05:09:23.800Z,14.70
2022-10-01T05:11:52.160Z,13.50
2022-10-01T05:14:21.243Z,12.70
2022-10-01T05:16:48.755Z,21.17
2022-10-01T05:19:16.413Z,19.67
2022-10-01T05:21:44.007Z,17.10
2022-10-01T05:24:11.845Z,18.10
2022-10-01T05:26:39.407Z,16.92
2022-10-01T05:29:07.083Z,14.70
2022-10-01T05:31:34.899Z,20.10
2022-10-01T05:34:03.017Z,24.90
2022-10-01T05:36:30.571Z,14.18
2022-10-01T05:38:58.126Z,15.70
2022-10-01T05:41:25.706Z,16.50
2022-10-01T05:43:53.418Z,17.73
2022-10-01T05:46:21.025Z,17.15
2022-10-01T05:48:51.227Z,24.20
2022-10-01T05:51:18.916Z,20.50
2022-10-01T05:53:50.318Z,21.08
2022-10-01T05:56:18.208Z,16.15
2022-10-01T05:58:46.793Z,18.90
2022-10-01T06:01:14.521Z,18.27
2022-10-01T06:03:42.851Z,19.05
2022-10-01T06:06:10.820Z,16.08
2022-10-01T06:08:38.414Z,18.65
2022-10-01T06:11:06.128Z,19.63
2022-10-01T06:13:35.867Z,14.02
2022-10-01T06:16:03.392Z,22.60
2022-10-01T06:18:30.963Z,16.20
2022-10-01T06:20:59.733Z,15.48
2022-10-01T06:23:27.342Z,18.73
2022-10-01T06:25:55.144Z,18.80
2022-10-01T06:28:22.821Z,17.58
2022-10-01T06:30:50.471Z,17.95
2022-10-01T06:33:18.605Z,14.18
2022-10-01T06:35:49.166Z,15.60
2022-10-01T06:38:20.067Z,14.10
2022-10-01T06:40:54.393Z,21.63
2022-10-01T06:43:23.175Z,16.80
2022-10-01T06:45:51.552Z,15.18
2022-10-01T06:48:20.820Z,13.45
2022-10-01T06:50:50.548Z,24.85
2022-10-01T06:53:18.522Z,13.65
2022-10-01T06:55:46.480Z,15.23
2022-10-01T06:58:15.624Z,17.27
2022-10-01T07:00:43.926Z,15.27
2022-10-01T07:03:16.005Z,14.63
2022-10-01T07:05:44.127Z,14.40
2022-10-01T07:08:13.069Z,15.85
2022-10-01T07:10:41.396Z,16.38
2022-10-01T07:13:17.757Z,13.18
2022-10-01T07:15:46.225Z,14.70
2022-10-01T07:18:13.986Z,15.80
2022-10-01T07:20:41.929Z,19.23
2022-10-01T07:23:14.202Z,12.60
2022-10-01T07:25:42.768Z,17.45
2022-10-01T07:28:16.747Z,15.95
2022-10-01T07:31:00.421Z,13.48
2022-10-01T07:33:28.281Z,12.48
2022-10-01T07:35:56.020Z,14.55
2022-10-01T07:38:23.819Z,14.73
2022-10-01T07:40:58.932Z,13.77
2022-10-01T07:43:26.575Z,12.80
2022-10-01T07:45:57.220Z,17.23
2022-10-01T07:48:25.802Z,13.87
2022-10-01T07:50:53.807Z,15.70
2022-10-01T07:53:23.472Z,14.25
2022-10-01T07:55:51.097Z,23.50
2022-10-01T07:58:18.951Z,12.25
2022-10-01T08:00:46.600Z,12.77
2022-10-01T08:03:14.086Z,11.63
2022-10-01T08:05:43.277Z,16.40
2022-10-01T08:08:11.327Z,14.55
2022-10-01T08:10:39.571Z,10.50
2022-10-01T08:13:15.951Z,14.23
2022-10-01T08:15:46.096Z,11.10
2022-10-01T08:18:14.409Z,13.73
2022-10-01T08:20:42.079Z,13.85
2022-10-01T08:23:12.035Z,13.35
2022-10-01T08:25:40.498Z,9.98
2022-10-01T08:28:09.524Z,17.38
2022-10-01T08:30:39.847Z,12.52
2022-10-01T08:33:09.780Z,12.65
2022-10-01T08:35:39.213Z,13.02
2022-10-01T08:38:07.591Z,12.57
2022-10-01T08:40:40.949Z,13.75
2022-10-01T08:43:30.230Z,14.35
2022-10-01T08:46:03.094Z,12.18
2022-10-01T08:48:42.658Z,12.65
2022-10-01T08:51:20.683Z,7.45
2022-10-01T08:53:57.612Z,9.90
2022-10-01T08:56:41.753Z,9.88
2022-10-01T08:59:26.626Z,14.55
2022-10-01T09:01:56.518Z,11.18
2022-10-01T09:04:24.399Z,13.13
2022-10-01T09:07:03.307Z,12.93
2022-10-01T09:09:44.936Z,9.93
2022-10-01T09:12:36.248Z,15.50
2022-10-01T09:15:28.172Z,11.07
2022-10-01T09:18:30.314Z,11.75
2022-10-01T09:20:59.064Z,9.10
2022-10-01T09:23:31.396Z,10.05
2022-10-01T09:26:00.158Z,10.40
2022-10-01T09:28:33.423Z,11.35
2022-10-01T09:31:24.118Z,7.30
2022-10-01T09:34:04.229Z,11.90
2022-10-01T09:37:04.746Z,11.57
2022-10-01T09:39:41.699Z,10.90
2022-10-01T09:42:09.523Z,10.27
2022-10-01T09:44:37.700Z,12.10
2022-10-01T09:47:19.429Z,14.20
2022-10-01T09:49:49.176Z,8.05
2022-10-01T09:52:19.578Z,10.75
2022-10-01T09:55:32.716Z,11.75
2022-10-01T09:58:08.502Z,11.32
2022-10-01T10:00:37.707Z,9.30
2022-10-01T10:03:05.455Z,7.72
2022-10-01T10:05:51.906Z,9.68
2022-10-01T10:08:28.729Z,10.43
2022-10-01T10:11:09.420Z,11.48
2022-10-01T10:13:41.130Z,7.10
2022-10-01T10:16:16.417Z,9.00
2022-10-01T10:18:49.182Z,8.30
2022-10-01T10:21:20.641Z,7.00
2022-10-01T10:23:57.124Z,8.10
2022-10-01T10:26:41.228Z,9.52
2022-10-01T10:29:26.750Z,11.82
2022-10-01T10:31:55.575Z,10.88
2022-10-01T10:34:39.050Z,10.70
2022-10-01T10:37:19.200Z,9.00
2022-10-01T10:39:52.030Z,9.95
2022-10-01T10:42:21.028Z,9.48
2022-10-01T10:44:50.699Z,7.90
2022-10-01T10:47:20.614Z,10.65
2022-10-01T10:49:59.436Z,9.88
2022-10-01T10:52:36.323Z,8.88
2022-10-01T10:55:23.645Z,8.10
2022-10-01T10:57:57.324Z,8.20
2022-10-01T11:00:26.416Z,8.52
2022-10-01T11:03:04.321Z,8.35
2022-10-01T11:05:39.546Z,6.65
2022-10-01T11:08:11.996Z,9.38
2022-10-01T11:11:11.248Z,10.43
2022-10-01T11:14:22.719Z,7.97
2022-10-01T11:17:12.411Z,7.00
2022-10-01T11:19:49.061Z,5.07
2022-10-01T11:22:52.559Z,7.47
2022-10-01T11:25:43.879Z,6.78
2022-10-01T11:28:42.686Z,8.43
2022-10-01T11:31:27.328Z,5.13
2022-10-01T11:34:16.194Z,5.68
2022-10-01T11:37:11.304Z,8.90
2022-10-01T11:39:42.905Z,7.25
2022-10-01T11:42:16.904Z,8.93
2022-10-01T11:45:00.514Z,10.82
2022-10-01T11:47:36.763Z,8.52
2022-10-01T11:50:18.930Z,6.85
2022-10-01T11:52:52.793Z,7.45
2022-10-01T11:55:44.685Z,11.18
2022-10-01T11:58:51.705Z,9.10
2022-10-01T12:01:45.246Z,6.40
2022-10-01T12:04:37.855Z,6.50
2022-10-01T12:07:36.388Z,9.65
2022-10-01T12:10:34.521Z,7.13
2022-10-01T12:13:15.992Z,8.98
2022-10-01T12:15:46.578Z,7.65
2022-10-01T12:18:39.038Z,11.95
2022-10-01T12:21:23.508Z,7.63
2022-10-01T12:24:10.851Z,12.57
2022-10-01T12:26:43.323Z,7.35
2022-10-01T12:29:16.851Z,8.40
2022-10-01T12:32:08.027Z,11.57
2022-10-01T12:35:00.491Z,8.60
2022-10-01T12:38:01.047Z,9.90
2022-10-01T12:40:46.719Z,10.02
2022-10-01T12:43:36.396Z,11.32
2022-10-01T12:46:25.238Z,7.50
2022-10-01T12:49:22.416Z,13.32
2022-10-01T12:52:04.448Z,8.43
2022-10-01T12:54:42.477Z,7.85
2022-10-01T12:57:09.964Z,6.43
2022-10-01T13:00:03.266Z,10.68
2022-10-01T13:02:53.139Z,8.23
2022-10-01T13:05:27.944Z,11.35
2022-10-01T13:08:03.980Z,6.97
2022-10-01T13:11:00.011Z,9.05
2022-10-01T13:13:32.944Z,8.45
2022-10-01T13:16:15.810Z,8.27
2022-10-01T13:19:21.563Z,8.65
2022-10-01T13:22:08.641Z,8.98
2022-10-01T13:24:55.034Z,6.43
2022-10-01T13:27:44.250Z,7.90
2022-10-01T13:30:22.970Z,9.55
2022-10-01T13:32:52.775Z,8.60
2022-10-01T13:35:39.646Z,5.78
2022-10-01T13:38:29.290Z,6.40
2022-10-01T13:40:59.524Z,9.88
2022-10-01T13:43:29.443Z,9.45
2022-10-01T13:46:06.699Z,8.02
2022-10-01T13:48:35.411Z,7.43
2022-10-01T13:51:10.691Z,6.10
2022-10-01T13:53:44.977Z,9.18
2022-10-01T13:56:26.599Z,8.80
2022-10-01T13:58:54.324Z,9.38
2022-10-01T14:01:24.976Z,6.13
2022-10-01T14:04:09.105Z,8.10
2022-10-01T14:06:37.100Z,8.68
2022-10-01T14:09:25.342Z,6.68
2022-10-01T14:12:43.099Z,7.82
2022-10-01T14:15:34.375Z,8.50
2022-10-01T14:18:10.071Z,6.60
2022-10-01T14:21:09.109Z,8.25
2022-10-01T14:23:54.945Z,7.82
2022-10-01T14:26:37.556Z,8.45
2022-10-01T14:29:20.495Z,9.07
2022-10-01T14:31:56.410Z,8.73
2022-10-01T14:34:27.042Z,7.50
2022-10-01T14:36:55.840Z,6.85
2022-10-01T14:39:26.059Z,7.97
2022-10-01T14:41:56.232Z,6.53
2022-10-01T14:44:41.844Z,8.52
2022-10-01T14:47:18.187Z,10.93
2022-10-01T14:49:46.684Z,7.35
2022-10-01T14:52:21.634Z,10.25
2022-10-01T14:54:59.215Z,8.57
2022-10-01T14:57:37.671Z,10.10
2022-10-01T15:00:11.442Z,9.23
2022-10-01T15:03:05.630Z,7.03
2022-10-01T15:05:35.984Z,8.10
2022-10-01T15:08:24.447Z,9.95
2022-10-01T15:11:04.044Z,7.75
2022-10-01T15:13:38.609Z,11.55
2022-10-01T15:16:16.084Z,9.50
2022-10-01T15:19:00.026Z,8.88
2022-10-01T15:21:47.815Z,12.95
2022-10-01T15:24:39.435Z,9.18
2022-10-01T15:29:38.432Z,14.05
2022-10-01T15:32:06.681Z,8.20
2022-10-01T15:34:35.080Z,7.78
2022-10-01T15:37:03.565Z,11.20
2022-10-01T15:39:32.872Z,13.27
2022-10-01T15:42:08.889Z,9.38
2022-10-01T15:44:38.419Z,10.30
2022-10-01T15:47:34.283Z,9.95
2022-10-01T15:50:10.669Z,12.63
2022-10-01T15:52:50.673Z,6.68
2022-10-01T15:55:48.759Z,8.57
2022-10-01T15:58:45.502Z,6.72
2022-10-01T16:01:21.437Z,8.60
2022-10-01T16:03:53.963Z,10.68
2022-10-01T16:06:37.921Z,13.50
2022-10-01T16:09:27.729Z,7.97
2022-10-01T16:12:00.169Z,12.15
2022-10-01T16:14:43.892Z,10.00
2022-10-01T16:17:17.388Z,8.30
2022-10-01T16:19:51.433Z,8.52
2022-10-01T16:22:35.290Z,9.10
2022-10-01T16:25:07.567Z,12.65
2022-10-01T16:27:47.643Z,13.05
2022-10-01T16:30:27.063Z,14.43
2022-10-01T16:32:55.832Z,11.95
2022-10-01T16:35:25.793Z,10.45
2022-10-01T16:37:56.101Z,10.90
2022-10-01T16:40:31.929Z,10.57
2022-10-01T16:43:00.670Z,11.30
2022-10-01T16:45:34.164Z,10.95
2022-10-01T16:48:06.346Z,10.82
2022-10-01T16:50:33.983Z,18.67
2022-10-01T16:53:02.098Z,12.32
2022-10-01T16:55:35.897Z,13.98
2022-10-01T16:58:06.259Z,14.02
2022-10-01T17:00:35.079Z,12.13
2022-10-01T17:03:03.954Z,11.95
2022-10-01T17:05:36.132Z,15.10
2022-10-01T17:08:11.080Z,13.65
2022-10-01T17:10:45.336Z,13.18
2022-10-01T17:13:13.996Z,18.90
2022-10-01T17:15:42.301Z,17.02
2022-10-01T17:18:10.243Z,19.02
2022-10-01T17:20:40.666Z,19.58
2022-10-01T17:23:10.034Z,13.77
2022-10-01T17:25:39.502Z,11.82
2022-10-01T17:28:11.618Z,15.73
2022-10-01T17:30:41.678Z,14.45
2022-10-01T17:33:11.272Z,17.15
2022-10-01T17:35:44.023Z,15.00
2022-10-01T17:38:12.911Z,13.40
2022-10-01T17:40:41.751Z,17.40
2022-10-01T17:43:13.832Z,10.57
2022-10-01T17:45:42.207Z,14.40
2022-10-01T17:48:10.117Z,12.48
2022-10-01T17:50:43.451Z,16.30
2022-10-01T17:53:12.178Z,18.45
2022-10-01T17:55:40.983Z,15.60
2022-10-01T17:58:08.616Z,17.50
2022-10-01T18:00:41.317Z,14.10
2022-10-01T18:03:09.227Z,19.17
2022-10-01T18:05:37.146Z,13.50
2022-10-01T18:08:04.678Z,16.90
2022-10-01T18:10:32.219Z,14.60
2022-10-01T18:12:59.987Z,15.50
2022-10-01T18:15:27.560Z,19.92
2022-10-01T18:19:12.790Z,12.63
2022-10-01T18:20:43.331Z,17.15
2022-10-01T18:23:10.890Z,14.07
2022-10-01T18:25:38.412Z,15.20
2022-10-01T18:28:06.174Z,11.43
2022-10-01T18:30:33.849Z,13.95
2022-10-01T18:33:02.887Z,16.15
2022-10-01T18:35:33.313Z,13.98
2022-10-01T18:38:21.590Z,11.10
2022-10-01T18:40:58.840Z,13.30
2022-10-01T18:43:26.548Z,15.18
2022-10-01T18:46:02.345Z,16.02
2022-10-01T18:49:00.399Z,9.93
2022-10-01T18:51:57.010Z,15.18
2022-10-01T18:54:53.265Z,15.20
2022-10-01T18:57:24.212Z,11.70
2022-10-01T19:00:02.703Z,11.38
2022-10-01T19:02:53.352Z,13.55
2022-10-01T19:05:24.888Z,15.35
2022-10-01T19:10:40.387Z,13.77
2022-10-01T19:13:29.684Z,11.32
2022-10-01T19:16:27.052Z,17.33
2022-10-01T19:18:56.728Z,15.70
2022-10-01T19:21:38.193Z,14.98
2022-10-01T19:24:37.683Z,17.13
2022-10-01T19:27:26.353Z,16.13
2022-10-01T19:30:11.117Z,17.10
2022-10-01T19:33:01.967Z,20.63
2022-10-01T19:35:38.882Z,11.93
2022-10-01T19:38:25.037Z,17.95
2022-10-01T19:41:02.607Z,13.88
2022-10-01T19:43:33.664Z,14.85
2022-10-01T19:46:16.511Z,14.70
2022-10-01T19:49:08.753Z,13.75
2022-10-01T19:51:44.236Z,14.38
2022-10-01T19:54:25.423Z,19.30
2022-10-01T19:56:56.451Z,14.57
2022-10-01T19:59:24.083Z,14.48
2022-10-01T20:01:54.286Z,13.68
2022-10-01T20:04:48.475Z,13.98
2022-10-01T20:07:48.078Z,12.57
2022-10-01T20:10:50.529Z,9.15
2022-10-01T20:13:32.493Z,8.60
2022-10-01T20:16:41.450Z,9.15
2022-10-01T20:19:37.362Z,14.27
2022-10-01T20:22:42.413Z,9.77
2022-10-01T20:25:48.783Z,11.40
2022-10-01T20:28:27.522Z,13.27
2022-10-01T20:31:20.451Z,11.60
2022-10-01T20:34:02.365Z,14.02
2022-10-01T20:36:46.859Z,10.35
2022-10-01T20:39:32.303Z,9.82
2022-10-01T20:42:01.033Z,11.82
2022-10-01T20:44:33.827Z,13.63
2022-10-01T20:47:11.171Z,10.50
2022-10-01T20:50:09.129Z,9.75
2022-10-01T20:52:56.262Z,12.88
2022-10-01T20:55:38.832Z,9.73
2022-10-01T20:58:23.571Z,11.80
2022-10-01T21:00:58.423Z,8.82
2022-10-01T21:03:42.819Z,8.32
2022-10-01T21:06:45.798Z,14.80
2022-10-01T21:09:33.502Z,10.23
2022-10-01T21:12:04.694Z,11.38
2022-10-01T21:14:45.636Z,9.50
2022-10-01T21:17:23.859Z,11.77
2022-10-01T21:20:35.391Z,10.90
2022-10-01T21:23:30.550Z,9.57
2022-10-01T21:26:00.833Z,9.57
2022-10-01T21:28:44.810Z,6.80
2022-10-01T21:31:31.093Z,11.48
2022-10-01T21:34:17.660Z,15.05
2022-10-01T21:37:14.142Z,10.38
2022-10-01T21:40:11.731Z,17.58
2022-10-01T21:42:52.582Z,11.45
2022-10-01T21:45:39.189Z,11.20
2022-10-01T21:48:46.367Z,13.55
2022-10-01T21:51:34.759Z,11.30
2022-10-01T21:54:31.831Z,12.70
2022-10-01T21:57:07.359Z,15.98
2022-10-01T22:00:06.257Z,9.75
2022-10-01T22:03:10.885Z,5.57
2022-10-01T22:05:52.022Z,11.27
2022-10-01T22:08:38.283Z,13.85
2022-10-01T22:11:21.250Z,16.10
2022-10-01T22:13:58.403Z,11.35
2022-10-01T22:16:32.429Z,12.85
2022-10-01T22:19:11.735Z,11.95
2022-10-01T22:21:50.475Z,13.43
2022-10-01T22:24:21.166Z,13.00
2022-10-01T22:26:57.961Z,12.57
2022-10-01T22:29:29.400Z,13.43
2022-10-01T22:32:03.052Z,10.18
2022-10-01T22:34:42.343Z,13.70
2022-10-01T22:37:18.684Z,14.13
2022-10-01T22:40:09.998Z,13.07
2022-10-01T22:42:42.994Z,12.05
2022-10-01T22:45:16.914Z,12.43
2022-10-01T22:47:53.597Z,15.55
2022-10-01T22:50:23.924Z,16.15
2022-10-01T22:53:31.251Z,13.63
2022-10-01T22:55:59.228Z,13.27
2022-10-01T22:58:45.471Z,12.38
2022-10-01T23:01:16.474Z,13.60
2022-10-01T23:03:59.503Z,11.48
2022-10-01T23:07:01.047Z,9.50
2022-10-01T23:09:34.529Z,14.25
2022-10-01T23:12:31.211Z,12.73
2022-10-01T23:15:12.439Z,17.17
2022-10-01T23:17:56.234Z,11.32
2022-10-01T23:20:32.142Z,9.10
2022-10-01T23:23:23.852Z,14.35
2022-10-01T23:29:02.560Z,13.52
2022-10-01T23:31:48.312Z,13.45
2022-10-01T23:34:29.589Z,10.93
2022-10-01T23:37:05.810Z,12.75
2022-10-01T23:40:01.681Z,13.75
2022-10-01T23:42:37.623Z,13.35
2022-10-01T23:45:26.352Z,17.98
2022-10-01T23:48:26.454Z,14.45
2022-10-01T23:51:16.642Z,12.93
2022-10-01T23:54:17.390Z,10.70
2022-10-01T23:57:06.263Z,12.85
2022-10-01T23:59:45.694Z,11.70
